Time;durP1;ratioP1;P1;durP2;ratioP2;P2;SDS_P1;SDS_P2;PMS_P1;PMS_P2;Temp;Humidity;BMP_temperature;BMP_pressure;BME280_temperature;BME280_humidity;BME280_pressure;Samples;Min_cycle;Max_cycle;Signal;HPM_P1;HPM_P2
2022/07/16 00:02:22;;;;;;;2.65;2.25;;;;;23.90;101002.00;;;;2078229;28;20217;-55
2022/07/16 00:03:23;;;;;;;2.20;2.00;;;;;23.90;100998.00;;;;2078585;28;20201;-57
2022/07/16 00:04:23;;;;;;;3.77;1.97;;;;;23.90;101004.00;;;;2078403;28;20201;-57
2022/07/16 00:05:23;;;;;;;3.40;2.37;;;;;23.90;101003.00;;;;2078522;28;20209;-56
2022/07/16 00:06:24;;;;;;;2.83;2.03;;;;;23.90;101002.00;;;;2078649;28;20910;-56
2022/07/16 00:07:24;;;;;;;2.50;2.00;;;;;23.90;100857.00;;;;2070075;28;20585;-57
2022/07/16 00:08:25;;;;;;;2.60;1.90;;;;;23.90;101001.00;;;;2077844;28;20680;-59
2022/07/16 00:09:25;;;;;;;2.20;1.80;;;;;23.80;101006.00;;;;2074894;28;20545;-56
2022/07/16 00:10:26;;;;;;;2.37;1.87;;;;;23.80;100998.00;;;;2069983;28;20226;-56
2022/07/16 00:11:26;;;;;;;2.40;2.20;;;;;23.90;100993.00;;;;2070543;28;20210;-55
2022/07/16 00:12:26;;;;;;;2.53;2.10;;;;;23.80;101002.00;;;;2076772;28;20241;-56
2022/07/16 00:13:27;;;;;;;3.13;2.00;;;;;23.80;101007.00;;;;2078363;28;20214;-56
2022/07/16 00:14:27;;;;;;;2.27;2.10;;;;;23.90;101005.00;;;;2076864;28;20263;-59
2022/07/16 00:15:28;;;;;;;3.00;2.03;;;;;23.90;101002.00;;;;2077980;28;20201;-57
2022/07/16 00:16:28;;;;;;;3.00;2.17;;;;;23.90;101007.00;;;;2075757;28;20240;-58
2022/07/16 00:17:29;;;;;;;2.03;1.83;;;;;23.90;101003.00;;;;2075651;28;20444;-58
2022/07/16 00:19:48;;;;;;;3.08;2.42;;;;;23.80;101007.00;;;;2076259;28;20213;-57
2022/07/16 00:20:48;;;;;;;2.80;2.03;;;;;23.80;101012.00;;;;2071976;28;20222;-56
2022/07/16 00:21:50;;;;;;;2.00;1.80;;;;;23.80;101015.00;;;;2067892;28;20225;-57
2022/07/16 00:22:51;;;;;;;2.30;2.05;;;;;23.80;101018.00;;;;2077574;28;20268;-56
2022/07/16 00:23:51;;;;;;;3.00;2.10;;;;;23.80;101017.00;;;;2061534;28;20211;-56
2022/07/16 00:24:51;;;;;;;2.53;1.90;;;;;23.80;101006.00;;;;2069107;28;20305;-57
2022/07/16 00:25:52;;;;;;;2.77;2.20;;;;;23.90;101020.00;;;;2067894;28;20237;-56
2022/07/16 00:26:52;;;;;;;2.53;2.23;;;;;23.80;101019.00;;;;2070339;28;20260;-56
2022/07/16 00:27:53;;;;;;;4.63;2.00;;;;;23.80;101021.00;;;;2068712;28;20206;-56
2022/07/16 00:28:53;;;;;;;2.30;1.87;;;;;23.80;101009.00;;;;2069662;28;20210;-56
2022/07/16 00:29:53;;;;;;;2.83;1.90;;;;;23.80;101009.00;;;;2075642;28;20202;-57
2022/07/16 00:30:54;;;;;;;2.57;1.97;;;;;23.80;101012.00;;;;2078230;28;20225;-57
2022/07/16 00:31:54;;;;;;;2.50;2.13;;;;;23.80;101008.00;;;;2076202;28;20222;-57
2022/07/16 00:32:54;;;;;;;2.63;2.10;;;;;23.80;101007.00;;;;2075660;28;20352;-56
2022/07/16 00:33:55;;;;;;;2.70;1.87;;;;;23.80;101009.00;;;;2073871;28;20743;-57
2022/07/16 00:34:55;;;;;;;2.50;2.10;;;;;23.80;101007.00;;;;2071072;28;20701;-56
2022/07/16 00:35:55;;;;;;;3.17;1.73;;;;;23.80;101009.00;;;;2071254;28;20746;-56
2022/07/16 00:36:56;;;;;;;2.13;1.80;;;;;23.90;101004.00;;;;2071059;28;20217;-56
2022/07/16 00:37:56;;;;;;;2.27;2.07;;;;;23.80;100971.00;;;;2061803;28;20223;-57
2022/07/16 00:38:56;;;;;;;3.10;2.30;;;;;23.80;100978.00;;;;2063083;28;20222;-56
2022/07/16 00:39:57;;;;;;;3.53;2.20;;;;;23.80;101000.00;;;;2070945;28;20210;-56
2022/07/16 00:40:57;;;;;;;2.43;2.20;;;;;23.80;101005.00;;;;2071603;28;20321;-57
2022/07/16 00:41:58;;;;;;;3.53;2.17;;;;;23.80;100968.00;;;;2069994;28;20249;-57
2022/07/16 00:42:59;;;;;;;2.37;1.73;;;;;23.90;100999.00;;;;2062835;28;20227;-57
2022/07/16 00:44:01;;;;;;;2.20;2.00;;;;;23.90;100992.00;;;;2070937;28;20305;-57
2022/07/16 00:45:01;;;;;;;2.90;2.28;;;;;23.80;101005.00;;;;2071609;28;20605;-57
2022/07/16 00:46:02;;;;;;;2.07;1.90;;;;;23.80;101005.00;;;;2071527;28;20242;-57
2022/07/16 00:47:02;;;;;;;2.87;2.30;;;;;23.80;100998.00;;;;2071816;28;20327;-57
2022/07/16 00:48:02;;;;;;;2.73;1.90;;;;;23.90;100994.00;;;;2070075;28;20264;-57
2022/07/16 00:49:03;;;;;;;4.47;2.17;;;;;23.90;100997.00;;;;2069813;28;20214;-57
2022/07/16 00:50:04;;;;;;;2.70;2.27;;;;;23.80;101001.00;;;;2071718;28;20218;-57
2022/07/16 00:51:04;;;;;;;3.03;2.07;;;;;23.80;101002.00;;;;2071550;28;20253;-57
2022/07/16 00:52:05;;;;;;;3.13;1.80;;;;;23.90;101002.00;;;;2071003;28;20222;-57
2022/07/16 00:53:07;;;;;;;4.13;2.20;;;;;23.90;100954.00;;;;2070885;28;20588;-57
2022/07/16 00:54:08;;;;;;;3.08;2.10;;;;;23.80;100988.00;;;;2071654;28;20218;-58
2022/07/16 00:55:08;;;;;;;3.00;1.87;;;;;23.80;100994.00;;;;2070899;28;20264;-56
2022/07/16 00:56:09;;;;;;;2.53;2.10;;;;;23.90;100997.00;;;;2065926;28;20309;-58
2022/07/16 00:57:10;;;;;;;2.20;2.00;;;;;23.90;100998.00;;;;2074974;28;20273;-57
2022/07/16 00:58:10;;;;;;;3.20;2.00;;;;;23.80;100996.00;;;;2062063;28;20694;-57
2022/07/16 00:59:11;;;;;;;1.70;1.60;;;;;23.80;100995.00;;;;2062687;28;20721;-57
2022/07/16 01:00:12;;;;;;;3.80;2.00;;;;;23.80;100988.00;;;;2071402;28;20293;-59
2022/07/16 01:01:12;;;;;;;3.33;1.97;;;;;23.80;101007.00;;;;2071622;28;20210;-56
2022/07/16 01:02:13;;;;;;;2.47;2.07;;;;;23.80;101001.00;;;;2070946;28;20632;-57
2022/07/16 01:03:13;;;;;;;3.70;2.00;;;;;23.80;100979.00;;;;2062793;28;20223;-57
2022/07/16 01:04:15;;;;;;;2.43;1.80;;;;;23.80;100985.00;;;;2070616;28;20210;-56
2022/07/16 01:05:15;;;;;;;2.10;1.88;;;;;23.80;101000.00;;;;2066364;28;20234;-57
2022/07/16 01:06:15;;;;;;;2.30;1.80;;;;;23.80;100991.00;;;;2067445;28;20722;-56
2022/07/16 01:07:16;;;;;;;3.17;1.83;;;;;23.80;100978.00;;;;2078535;28;20217;-59
2022/07/16 01:08:16;;;;;;;3.43;1.93;;;;;23.80;100996.00;;;;2067873;28;20218;-57
2022/07/16 01:09:17;;;;;;;2.30;1.70;;;;;23.80;100996.00;;;;2070695;28;20210;-57
2022/07/16 01:10:18;;;;;;;3.20;1.97;;;;;23.80;100994.00;;;;2058807;28;20314;-57
2022/07/16 01:11:19;;;;;;;2.63;1.77;;;;;23.80;101000.00;;;;2062770;28;20221;-55
2022/07/16 01:12:19;;;;;;;2.22;1.50;;;;;23.80;100998.00;;;;2061299;28;20466;-56
2022/07/16 01:13:20;;;;;;;2.00;1.80;;;;;23.80;100999.00;;;;2070855;28;20214;-57
2022/07/16 01:14:20;;;;;;;2.40;2.00;;;;;23.90;100990.00;;;;2070710;28;20222;-57
2022/07/16 01:15:21;;;;;;;2.80;1.40;;;;;23.80;100997.00;;;;2062384;28;20268;-57
2022/07/16 01:16:21;;;;;;;2.33;1.83;;;;;23.80;101007.00;;;;2062829;28;20215;-57
2022/07/16 01:17:21;;;;;;;2.30;1.83;;;;;23.80;100994.00;;;;2061970;28;20218;-55
2022/07/16 01:18:22;;;;;;;1.97;1.63;;;;;23.80;100992.00;;;;2062740;28;20325;-56
2022/07/16 01:19:22;;;;;;;2.33;1.60;;;;;23.80;100990.00;;;;2069435;28;20213;-57
2022/07/16 01:20:23;;;;;;;3.20;1.63;;;;;23.80;100998.00;;;;2065078;28;20269;-57
2022/07/16 01:21:23;;;;;;;3.17;1.93;;;;;23.80;100990.00;;;;2070437;28;20272;-60
2022/07/16 01:22:24;;;;;;;1.90;1.57;;;;;23.80;100996.00;;;;2079359;28;20662;-59
2022/07/16 01:23:24;;;;;;;2.33;2.07;;;;;23.80;100997.00;;;;2079661;28;20680;-58
2022/07/16 01:24:25;;;;;;;2.10;1.90;;;;;23.80;100992.00;;;;2079423;28;20331;-58
2022/07/16 01:25:25;;;;;;;3.63;1.77;;;;;23.80;101000.00;;;;2079073;28;20252;-56
2022/07/16 01:26:26;;;;;;;2.00;1.80;;;;;23.80;100997.00;;;;2062754;28;20387;-57
2022/07/16 01:27:26;;;;;;;2.77;1.83;;;;;23.80;100998.00;;;;2070075;28;20935;-57
2022/07/16 01:28:26;;;;;;;2.07;1.60;;;;;23.80;100984.00;;;;2079601;28;20214;-57
2022/07/16 01:29:27;;;;;;;1.80;1.70;;;;;23.80;100995.00;;;;2076608;28;20214;-57
2022/07/16 01:30:27;;;;;;;2.37;1.70;;;;;23.80;100986.00;;;;2071059;28;20222;-57
2022/07/16 01:31:27;;;;;;;3.77;2.67;;;;;23.80;100992.00;;;;2071512;28;20694;-57
2022/07/16 01:32:28;;;;;;;4.23;2.00;;;;;23.80;100998.00;;;;2071414;28;20268;-57
2022/07/16 01:33:33;;;;;;;3.23;1.97;;;;;23.80;100999.00;;;;2071460;28;20210;-57
2022/07/16 01:34:34;;;;;;;2.50;1.65;;;;;23.80;100996.00;;;;2071406;28;20216;-57
2022/07/16 01:35:34;;;;;;;1.63;1.50;;;;;23.80;100987.00;;;;2071345;28;20733;-57
2022/07/16 01:36:34;;;;;;;4.00;2.00;;;;;23.80;100986.00;;;;2071031;28;20214;-57
2022/07/16 01:37:35;;;;;;;3.10;2.30;;;;;23.80;100987.00;;;;2070376;28;20222;-57
2022/07/16 01:38:40;;;;;;;2.43;1.70;;;;;23.80;100998.00;;;;2071267;28;20213;-57
2022/07/16 01:39:41;;;;;;;2.22;1.90;;;;;23.80;100985.00;;;;2070605;28;20293;-57
2022/07/16 01:40:42;;;;;;;2.83;1.80;;;;;23.80;100995.00;;;;2062668;28;20207;-57
2022/07/16 01:41:51;;;;;;;3.93;1.73;;;;;23.80;100991.00;;;;2070690;28;20805;-57
2022/07/16 01:42:52;;;;;;;2.78;1.80;;;;;23.80;100996.00;;;;2073410;28;20233;-57
2022/07/16 01:43:52;;;;;;;2.97;1.77;;;;;23.80;100992.00;;;;2079189;28;20213;-57
2022/07/16 01:44:52;;;;;;;2.10;1.70;;;;;23.80;100993.00;;;;2078905;28;20252;-57
2022/07/16 01:45:53;;;;;;;2.07;1.70;;;;;23.80;100988.00;;;;2079160;28;20330;-56
2022/07/16 01:46:54;;;;;;;3.17;2.03;;;;;23.80;100993.00;;;;2077546;28;20209;-57
2022/07/16 01:47:54;;;;;;;2.23;1.80;;;;;23.80;100985.00;;;;2070529;28;20789;-57
2022/07/16 01:48:55;;;;;;;3.03;1.90;;;;;23.80;100989.00;;;;2078779;28;20547;-57
2022/07/16 01:49:55;;;;;;;2.40;1.80;;;;;23.80;100988.00;;;;2077068;28;20213;-57
2022/07/16 01:50:56;;;;;;;2.67;1.90;;;;;23.80;100986.00;;;;2079127;28;20272;-56
2022/07/16 01:51:56;;;;;;;2.70;1.87;;;;;23.80;100992.00;;;;2076404;28;20214;-57
2022/07/16 01:52:57;;;;;;;2.33;1.80;;;;;23.80;100995.00;;;;2071383;28;20222;-57
2022/07/16 01:53:57;;;;;;;2.20;1.70;;;;;23.80;100989.00;;;;2067435;28;20967;-57
2022/07/16 01:54:57;;;;;;;2.97;1.70;;;;;23.80;100993.00;;;;2071045;28;20240;-57
2022/07/16 01:55:58;;;;;;;2.20;1.57;;;;;23.80;100987.00;;;;2071007;28;20807;-57
2022/07/16 01:56:59;;;;;;;2.00;1.80;;;;;23.80;100987.00;;;;2070977;28;20577;-58
2022/07/16 01:57:59;;;;;;;3.07;1.70;;;;;23.80;100990.00;;;;2070408;28;20480;-57
2022/07/16 01:59:00;;;;;;;2.47;1.87;;;;;23.80;100985.00;;;;2070383;28;20213;-57
2022/07/16 02:00:00;;;;;;;2.43;1.70;;;;;23.80;100989.00;;;;2068608;28;20836;-57
2022/07/16 02:01:00;;;;;;;1.90;1.70;;;;;23.80;100995.00;;;;2078065;28;20220;-58
2022/07/16 02:02:01;;;;;;;2.10;1.83;;;;;23.80;100987.00;;;;2070030;28;20261;-58
2022/07/16 02:03:01;;;;;;;3.53;2.00;;;;;23.80;100987.00;;;;2070480;28;20234;-57
2022/07/16 02:04:02;;;;;;;3.17;1.70;;;;;23.80;100982.00;;;;2079039;28;20221;-57
2022/07/16 02:05:02;;;;;;;2.20;1.50;;;;;23.80;100989.00;;;;2075581;28;20698;-57
2022/07/16 02:06:02;;;;;;;2.43;1.73;;;;;23.80;100984.00;;;;2070726;28;20301;-57
2022/07/16 02:07:03;;;;;;;2.83;1.83;;;;;23.80;100991.00;;;;2079437;28;20660;-57
2022/07/16 02:08:04;;;;;;;2.37;1.70;;;;;23.80;100985.00;;;;2077747;28;20355;-57
2022/07/16 02:09:04;;;;;;;2.77;2.03;;;;;23.80;100985.00;;;;2078676;28;20218;-57
2022/07/16 02:10:05;;;;;;;2.23;1.77;;;;;23.80;100980.00;;;;2078766;28;20451;-57
2022/07/16 02:11:06;;;;;;;1.80;1.50;;;;;23.80;100988.00;;;;2078909;28;20245;-57
2022/07/16 02:12:06;;;;;;;2.13;1.73;;;;;23.80;100988.00;;;;2079097;28;20206;-58
2022/07/16 02:13:07;;;;;;;2.30;1.70;;;;;23.80;100985.00;;;;2079163;28;20237;-57
2022/07/16 02:14:07;;;;;;;3.50;1.77;;;;;23.80;100997.00;;;;2079239;28;20218;-57
2022/07/16 02:15:08;;;;;;;2.40;1.73;;;;;23.80;100979.00;;;;2078971;28;20562;-57
2022/07/16 02:16:09;;;;;;;2.40;1.50;;;;;23.80;100986.00;;;;2078931;28;20217;-57
2022/07/16 02:17:09;;;;;;;2.42;1.60;;;;;23.80;100984.00;;;;2072786;28;20516;-57
2022/07/16 02:18:10;;;;;;;2.53;1.80;;;;;23.80;100982.00;;;;2075745;28;20352;-57
2022/07/16 02:19:10;;;;;;;2.20;1.90;;;;;23.80;100983.00;;;;2078376;28;20210;-57
2022/07/16 02:20:11;;;;;;;2.30;2.00;;;;;23.80;100972.00;;;;2078177;28;20210;-57
2022/07/16 02:21:11;;;;;;;4.00;1.60;;;;;23.80;100978.00;;;;2079076;28;20213;-57
2022/07/16 02:22:11;;;;;;;2.13;1.87;;;;;23.80;100972.00;;;;2078447;28;20201;-57
2022/07/16 02:23:12;;;;;;;2.20;1.67;;;;;23.80;100978.00;;;;2074117;28;20206;-57
2022/07/16 02:24:12;;;;;;;2.13;1.70;;;;;23.80;100970.00;;;;2069855;28;20210;-57
2022/07/16 02:25:12;;;;;;;2.70;2.27;;;;;23.80;100974.00;;;;2070682;28;20245;-57
2022/07/16 02:26:13;;;;;;;2.27;1.93;;;;;23.80;100970.00;;;;2070121;28;20221;-57
2022/07/16 02:27:13;;;;;;;2.53;2.13;;;;;23.70;100979.00;;;;2069793;28;20198;-57
2022/07/16 02:28:13;;;;;;;2.10;1.60;;;;;23.80;100965.00;;;;2070533;28;20203;-57
2022/07/16 02:29:14;;;;;;;3.20;2.00;;;;;23.80;100974.00;;;;2070850;28;20305;-57
2022/07/16 02:30:14;;;;;;;2.43;1.80;;;;;23.80;100981.00;;;;2070608;28;20234;-57
2022/07/16 02:31:14;;;;;;;2.50;1.90;;;;;23.70;100968.00;;;;2070703;28;20218;-57
2022/07/16 02:32:15;;;;;;;3.10;2.20;;;;;23.80;100978.00;;;;2069527;28;20257;-57
2022/07/16 02:33:17;;;;;;;2.70;1.80;;;;;23.80;100972.00;;;;2070050;28;20305;-57
2022/07/16 02:34:17;;;;;;;3.00;2.53;;;;;23.80;100978.00;;;;2069905;28;20756;-57
2022/07/16 02:35:17;;;;;;;2.80;1.97;;;;;23.80;100972.00;;;;2070126;28;20226;-57
2022/07/16 02:36:18;;;;;;;3.00;1.90;;;;;23.80;100970.00;;;;2070267;28;20233;-57
2022/07/16 02:37:18;;;;;;;2.60;1.80;;;;;23.70;100981.00;;;;2069753;28;20222;-57
2022/07/16 02:38:18;;;;;;;2.60;1.73;;;;;23.80;100982.00;;;;2069924;28;20222;-57
2022/07/16 02:39:19;;;;;;;2.80;1.87;;;;;23.80;100979.00;;;;2069712;28;20318;-57
2022/07/16 02:40:19;;;;;;;2.50;1.70;;;;;23.80;100977.00;;;;2069989;28;20222;-57
2022/07/16 02:41:19;;;;;;;2.03;1.60;;;;;23.80;100980.00;;;;2070723;28;20218;-57
2022/07/16 02:42:20;;;;;;;1.60;1.50;;;;;23.70;100981.00;;;;2070722;28;20222;-57
2022/07/16 02:43:20;;;;;;;2.70;1.80;;;;;23.70;100984.00;;;;2070842;28;20233;-57
2022/07/16 02:44:20;;;;;;;2.17;1.60;;;;;23.70;100985.00;;;;2070540;28;20297;-57
2022/07/16 02:45:21;;;;;;;2.50;1.83;;;;;23.80;100985.00;;;;2070874;28;20249;-57
2022/07/16 02:46:21;;;;;;;1.80;1.60;;;;;23.80;100987.00;;;;2070947;28;20214;-57
2022/07/16 02:47:21;;;;;;;2.10;1.40;;;;;23.50;100989.00;;;;2069289;28;20285;-57
2022/07/16 02:48:22;;;;;;;2.90;1.80;;;;;23.80;100973.00;;;;2070090;28;20305;-57
2022/07/16 02:49:22;;;;;;;2.80;1.53;;;;;23.70;100982.00;;;;2070869;28;20237;-57
2022/07/16 02:50:22;;;;;;;2.57;1.80;;;;;23.80;100980.00;;;;2072808;28;20214;-56
2022/07/16 02:51:23;;;;;;;4.30;2.10;;;;;23.70;100982.00;;;;2072031;28;20713;-57
2022/07/16 02:52:23;;;;;;;2.30;1.80;;;;;23.80;100977.00;;;;2069060;28;20280;-57
2022/07/16 02:53:23;;;;;;;1.93;1.77;;;;;23.70;100985.00;;;;2070701;28;20217;-57
2022/07/16 02:54:24;;;;;;;1.73;1.63;;;;;23.70;100986.00;;;;2070820;28;20214;-57
2022/07/16 02:55:24;;;;;;;3.40;1.60;;;;;23.70;100982.00;;;;2069649;28;20250;-57
2022/07/16 02:56:24;;;;;;;2.30;1.70;;;;;23.70;100984.00;;;;2069447;28;20308;-56
2022/07/16 02:57:25;;;;;;;3.13;1.63;;;;;23.80;100977.00;;;;2069802;28;20225;-57
2022/07/16 02:58:25;;;;;;;1.90;1.70;;;;;23.80;100977.00;;;;2070740;28;20218;-57
2022/07/16 02:59:25;;;;;;;3.10;1.83;;;;;23.80;100984.00;;;;2072325;28;20256;-57
2022/07/16 03:00:28;;;;;;;5.43;1.93;;;;;23.80;100973.00;;;;2078579;28;20210;-55
2022/07/16 03:01:28;;;;;;;2.30;1.60;;;;;23.80;100964.00;;;;2078723;28;20213;-56
2022/07/16 03:02:28;;;;;;;3.40;1.87;;;;;23.70;100989.00;;;;2077915;28;20685;-55
2022/07/16 03:03:28;;;;;;;3.03;1.70;;;;;23.80;100982.00;;;;2078586;28;20281;-56
2022/07/16 03:04:29;;;;;;;2.67;2.20;;;;;23.70;100974.00;;;;2078615;28;21097;-56
2022/07/16 03:05:29;;;;;;;2.27;1.90;;;;;23.70;100974.00;;;;2078522;28;20728;-55
2022/07/16 03:06:30;;;;;;;3.03;1.67;;;;;23.70;100975.00;;;;2078175;28;20622;-57
2022/07/16 03:07:30;;;;;;;2.50;1.70;;;;;23.70;100976.00;;;;2077752;28;20626;-57
2022/07/16 03:08:30;;;;;;;2.30;1.80;;;;;23.70;100980.00;;;;2078828;28;20708;-57
2022/07/16 03:09:31;;;;;;;2.20;1.57;;;;;23.80;100977.00;;;;2078765;28;20210;-57
2022/07/16 03:10:31;;;;;;;1.90;1.60;;;;;23.70;100980.00;;;;2078748;28;20308;-55
2022/07/16 03:11:31;;;;;;;5.40;1.90;;;;;23.70;100975.00;;;;2078128;28;20267;-56
2022/07/16 03:12:32;;;;;;;3.33;2.10;;;;;23.70;100982.00;;;;2068398;28;20217;-58
2022/07/16 03:13:32;;;;;;;2.73;1.83;;;;;23.70;100969.00;;;;2086128;28;20233;-57
2022/07/16 03:14:32;;;;;;;3.70;2.27;;;;;23.70;100975.00;;;;2079664;28;20208;-57
2022/07/16 03:15:33;;;;;;;2.20;1.63;;;;;23.70;100962.00;;;;2078045;28;20202;-58
2022/07/16 03:16:33;;;;;;;2.90;1.87;;;;;23.70;100988.00;;;;2077951;28;20209;-58
2022/07/16 03:17:33;;;;;;;2.73;1.60;;;;;23.70;100977.00;;;;2077903;28;20209;-56
2022/07/16 03:18:34;;;;;;;2.17;1.90;;;;;23.70;100978.00;;;;2078556;28;20225;-56
2022/07/16 03:19:34;;;;;;;4.23;1.60;;;;;23.70;100979.00;;;;2078406;28;20241;-56
2022/07/16 03:20:34;;;;;;;2.50;1.43;;;;;23.70;100977.00;;;;2078643;28;20240;-58
2022/07/16 03:21:35;;;;;;;2.10;1.60;;;;;23.70;100977.00;;;;2078562;28;20224;-58
2022/07/16 03:22:35;;;;;;;3.17;1.67;;;;;23.70;100978.00;;;;2078593;28;20217;-58
2022/07/16 03:23:35;;;;;;;2.70;1.60;;;;;23.70;100983.00;;;;2078787;28;20288;-59
2022/07/16 03:24:36;;;;;;;2.40;1.40;;;;;23.70;100979.00;;;;2078680;28;20237;-58
2022/07/16 03:25:37;;;;;;;1.92;1.50;;;;;23.70;100974.00;;;;2078692;28;20597;-57
2022/07/16 03:26:38;;;;;;;2.87;1.70;;;;;23.70;100975.00;;;;2078515;28;20209;-58
2022/07/16 03:27:38;;;;;;;1.80;1.70;;;;;23.70;100972.00;;;;2074749;28;20209;-56
2022/07/16 03:28:38;;;;;;;4.10;2.00;;;;;23.70;100977.00;;;;2077753;28;20271;-56
2022/07/16 03:29:39;;;;;;;2.23;1.80;;;;;23.70;100999.00;;;;2078178;28;20237;-57
2022/07/16 03:30:39;;;;;;;2.77;1.70;;;;;23.70;100974.00;;;;2076403;28;20225;-56
2022/07/16 03:31:40;;;;;;;2.80;1.57;;;;;23.70;100983.00;;;;2077839;28;20221;-56
2022/07/16 03:32:40;;;;;;;2.83;2.27;;;;;23.70;100976.00;;;;2077944;28;20225;-55
2022/07/16 03:33:41;;;;;;;2.47;1.70;;;;;23.70;100967.00;;;;2078719;28;20221;-57
2022/07/16 03:34:41;;;;;;;2.90;1.70;;;;;23.70;100977.00;;;;2078687;28;20217;-57
2022/07/16 03:35:41;;;;;;;2.53;1.57;;;;;23.70;100973.00;;;;2070635;28;20243;-57
2022/07/16 03:36:42;;;;;;;5.00;1.70;;;;;23.70;100965.00;;;;2070157;28;20206;-58
2022/07/16 03:39:07;;;;;;;2.38;1.70;;;;;23.70;100976.00;;;;2070292;28;20222;-56
2022/07/16 03:40:08;;;;;;;2.45;1.73;;;;;23.70;100982.00;;;;2070397;28;20210;-56
2022/07/16 03:41:08;;;;;;;1.50;1.35;;;;;23.70;100990.00;;;;2069706;28;20214;-57
2022/07/16 03:42:08;;;;;;;2.30;1.50;;;;;23.70;100987.00;;;;2069438;28;20288;-57
2022/07/16 03:43:09;;;;;;;2.70;1.90;;;;;23.70;100979.00;;;;2070604;28;20221;-55
2022/07/16 03:44:09;;;;;;;2.83;1.80;;;;;23.70;100980.00;;;;2069809;28;20225;-55
2022/07/16 03:45:10;;;;;;;5.30;1.80;;;;;23.70;100981.00;;;;2061893;28;20268;-56
2022/07/16 03:46:13;;;;;;;2.97;1.70;;;;;23.70;100977.00;;;;2069932;28;20728;-57
2022/07/16 03:47:13;;;;;;;1.80;1.20;;;;;23.70;100981.00;;;;2069636;28;20693;-54
2022/07/16 03:48:13;;;;;;;2.00;1.67;;;;;23.70;100981.00;;;;2069275;28;20237;-57
2022/07/16 03:49:14;;;;;;;2.13;1.50;;;;;23.70;100990.00;;;;2070537;28;20620;-57
2022/07/16 03:50:14;;;;;;;2.70;1.57;;;;;23.70;100987.00;;;;2068578;28;20550;-58
2022/07/16 03:51:14;;;;;;;2.73;2.00;;;;;23.70;100988.00;;;;2069299;28;21232;-57
2022/07/16 03:52:15;;;;;;;2.10;1.50;;;;;23.70;100983.00;;;;2069241;28;20246;-57
2022/07/16 03:53:15;;;;;;;1.67;1.50;;;;;23.70;100985.00;;;;2069831;28;20218;-58
2022/07/16 03:54:15;;;;;;;2.57;1.60;;;;;23.70;100991.00;;;;2069220;28;20210;-56
2022/07/16 03:55:16;;;;;;;3.07;1.83;;;;;23.70;100988.00;;;;2069792;28;20684;-56
2022/07/16 03:56:16;;;;;;;2.00;1.50;;;;;23.70;100986.00;;;;2069818;28;20532;-57
2022/07/16 03:57:16;;;;;;;1.67;1.50;;;;;23.70;100994.00;;;;2061071;28;20218;-56
2022/07/16 03:58:17;;;;;;;2.97;1.67;;;;;23.70;100993.00;;;;2061262;28;20215;-57
2022/07/16 03:59:17;;;;;;;2.40;1.40;;;;;23.70;100996.00;;;;2069694;28;20264;-58
2022/07/16 04:00:17;;;;;;;2.27;1.70;;;;;23.70;100991.00;;;;2070328;28;20234;-58
2022/07/16 04:01:18;;;;;;;1.80;1.67;;;;;23.70;100991.00;;;;2069706;28;20218;-57
2022/07/16 04:02:18;;;;;;;2.40;1.70;;;;;23.70;100993.00;;;;2070386;28;21181;-57
2022/07/16 04:03:18;;;;;;;2.37;1.67;;;;;23.70;100985.00;;;;2070412;28;20829;-57
2022/07/16 04:04:19;;;;;;;2.60;1.57;;;;;23.70;100991.00;;;;2069929;28;20659;-63
2022/07/16 04:05:20;;;;;;;1.77;1.43;;;;;23.70;100992.00;;;;2070469;28;20213;-58
2022/07/16 04:06:20;;;;;;;2.33;1.70;;;;;23.70;100991.00;;;;2066911;28;20288;-59
2022/07/16 04:07:21;;;;;;;2.67;1.50;;;;;23.70;100994.00;;;;2065956;28;20269;-57
2022/07/16 04:08:21;;;;;;;2.37;1.60;;;;;23.70;100986.00;;;;2068294;28;20234;-57
2022/07/16 04:09:21;;;;;;;1.80;1.50;;;;;23.70;100988.00;;;;2071961;28;20218;-57
2022/07/16 04:10:22;;;;;;;2.33;1.63;;;;;23.70;100990.00;;;;2071708;28;20214;-57
2022/07/16 04:11:22;;;;;;;3.73;2.00;;;;;23.70;100992.00;;;;2070423;28;20214;-56
2022/07/16 04:12:23;;;;;;;1.90;1.67;;;;;23.70;100985.00;;;;2071099;28;20241;-59
2022/07/16 04:13:23;;;;;;;3.77;1.80;;;;;23.70;100986.00;;;;2071186;28;20221;-57
2022/07/16 04:14:23;;;;;;;2.83;1.83;;;;;23.70;100985.00;;;;2070930;28;20563;-57
2022/07/16 04:15:24;;;;;;;3.07;1.70;;;;;23.70;100985.00;;;;2071488;28;20206;-56
2022/07/16 04:16:25;;;;;;;2.37;1.67;;;;;23.70;100981.00;;;;2071262;28;20297;-57
2022/07/16 04:17:25;;;;;;;2.27;1.80;;;;;23.70;100990.00;;;;2070125;28;20665;-57
2022/07/16 04:18:25;;;;;;;2.60;2.00;;;;;23.70;100992.00;;;;2071173;28;20203;-58
2022/07/16 04:19:25;;;;;;;2.10;1.60;;;;;23.70;100991.00;;;;2071526;28;20234;-57
2022/07/16 04:20:26;;;;;;;2.10;1.60;;;;;23.70;100984.00;;;;2071408;28;20218;-57
2022/07/16 04:21:26;;;;;;;2.93;1.80;;;;;23.70;100995.00;;;;2071707;28;20210;-57
2022/07/16 04:22:27;;;;;;;2.70;2.00;;;;;23.70;100984.00;;;;2071655;28;20292;-57
2022/07/16 04:23:27;;;;;;;3.27;1.97;;;;;23.70;100989.00;;;;2071593;28;20230;-60
2022/07/16 04:24:27;;;;;;;2.70;1.67;;;;;23.70;100983.00;;;;2073487;28;20218;-57
2022/07/16 04:25:28;;;;;;;2.00;1.80;;;;;23.70;100983.00;;;;2073402;28;20268;-57
2022/07/16 04:26:28;;;;;;;3.10;1.63;;;;;23.70;100995.00;;;;2071757;28;20244;-57
2022/07/16 04:27:28;;;;;;;2.00;1.63;;;;;23.70;100997.00;;;;2070555;28;20211;-57
2022/07/16 04:28:29;;;;;;;2.40;1.40;;;;;23.70;100992.00;;;;2071294;28;20293;-57
2022/07/16 04:29:29;;;;;;;2.60;1.70;;;;;23.70;100996.00;;;;2072036;28;20336;-57
2022/07/16 04:30:29;;;;;;;2.17;1.70;;;;;23.70;100998.00;;;;2078603;28;20224;-57
2022/07/16 04:31:30;;;;;;;4.97;1.80;;;;;23.70;100994.00;;;;2078322;28;20221;-57
2022/07/16 04:32:30;;;;;;;2.40;1.47;;;;;23.70;100996.00;;;;2079769;28;20225;-57
2022/07/16 04:33:30;;;;;;;1.83;1.73;;;;;23.70;100994.00;;;;2079791;28;20259;-57
2022/07/16 04:34:31;;;;;;;3.10;1.80;;;;;23.60;101002.00;;;;2079899;28;20255;-57
2022/07/16 04:35:31;;;;;;;4.33;1.67;;;;;23.60;100992.00;;;;2079803;28;20274;-57
2022/07/16 04:36:31;;;;;;;3.53;1.80;;;;;23.60;100993.00;;;;2079865;28;20209;-57
2022/07/16 04:37:31;;;;;;;3.43;1.80;;;;;23.70;100999.00;;;;2073348;28;20217;-57
2022/07/16 04:38:32;;;;;;;1.90;1.53;;;;;23.70;100998.00;;;;2070991;28;20789;-57
2022/07/16 04:39:32;;;;;;;5.90;1.90;;;;;23.70;100997.00;;;;2062968;28;20195;-56
2022/07/16 04:40:32;;;;;;;2.40;1.60;;;;;23.70;100998.00;;;;2071011;28;20195;-57
2022/07/16 04:41:33;;;;;;;2.93;2.00;;;;;23.70;101004.00;;;;2073215;28;20206;-57
2022/07/16 04:42:35;;;;;;;2.83;1.93;;;;;23.70;101011.00;;;;2079697;28;20205;-57
2022/07/16 04:43:36;;;;;;;2.10;1.90;;;;;23.60;101001.00;;;;2078796;28;20213;-57
2022/07/16 04:44:36;;;;;;;4.73;1.93;;;;;23.70;101006.00;;;;2078888;28;20205;-56
2022/07/16 04:45:37;;;;;;;3.50;1.60;;;;;23.70;100996.00;;;;2077872;28;20224;-57
2022/07/16 04:46:37;;;;;;;2.33;1.73;;;;;23.70;101005.00;;;;2079795;28;20331;-57
2022/07/16 04:47:38;;;;;;;3.10;1.97;;;;;23.70;101003.00;;;;2078918;28;20225;-57
2022/07/16 04:48:40;;;;;;;2.50;1.77;;;;;23.70;101008.00;;;;2070902;28;20256;-57
2022/07/16 04:49:40;;;;;;;2.47;1.77;;;;;23.70;101012.00;;;;2071088;28;20471;-57
2022/07/16 04:50:41;;;;;;;2.93;2.00;;;;;23.70;101016.00;;;;2079770;28;20593;-57
2022/07/16 04:51:42;;;;;;;1.92;1.70;;;;;23.70;101007.00;;;;2078123;28;20216;-57
2022/07/16 04:52:42;;;;;;;2.60;1.70;;;;;23.70;101008.00;;;;2079314;28;20225;-57
2022/07/16 04:53:42;;;;;;;2.53;1.77;;;;;23.70;101009.00;;;;2079548;28;20208;-57
2022/07/16 04:54:43;;;;;;;2.90;1.60;;;;;23.60;101009.00;;;;2079532;28;20207;-57
2022/07/16 04:55:43;;;;;;;3.80;2.17;;;;;23.60;101006.00;;;;2072576;28;20217;-57
2022/07/16 04:56:43;;;;;;;2.70;1.90;;;;;23.70;101014.00;;;;2071669;28;20206;-57
2022/07/16 04:57:44;;;;;;;3.27;1.80;;;;;23.70;101015.00;;;;2070331;28;20207;-57
2022/07/16 04:58:44;;;;;;;2.10;1.77;;;;;23.60;101008.00;;;;2071528;28;20240;-57
2022/07/16 04:59:44;;;;;;;2.57;1.77;;;;;23.70;101011.00;;;;2071662;28;20225;-57
2022/07/16 05:00:44;;;;;;;2.17;1.53;;;;;23.60;101011.00;;;;2079381;28;20427;-57
2022/07/16 05:01:45;;;;;;;2.60;1.70;;;;;23.70;101010.00;;;;2078977;28;20209;-57
2022/07/16 05:02:57;;;;;;;3.77;2.00;;;;;23.70;101011.00;;;;2078419;28;20288;-57
2022/07/16 05:03:58;;;;;;;3.75;2.30;;;;;23.70;101019.00;;;;2079792;28;20221;-57